createdAt,value
2023-03-28T00:05:56.297Z,0.53
2023-03-28T00:20:56.154Z,0.64
2023-03-28T00:35:56.030Z,0.79
2023-03-28T00:50:55.902Z,0.78
2023-03-28T01:05:55.719Z,0.90
2023-03-28T01:20:55.569Z,0.85
2023-03-28T01:35:55.431Z,0.98
2023-03-28T01:50:55.311Z,0.96
2023-03-28T02:05:55.137Z,1.14
2023-03-28T02:20:55.019Z,0.82
2023-03-28T02:35:54.932Z,0.53
2023-03-28T02:50:54.739Z,0.58
2023-03-28T03:05:54.585Z,0.58
2023-03-28T03:20:54.712Z,0.71
2023-03-28T03:35:54.306Z,0.85
2023-03-28T03:50:54.168Z,0.76
2023-03-28T04:05:53.995Z,0.71
2023-03-28T04:20:53.873Z,0.49
2023-03-28T04:35:53.735Z,0.38
2023-03-28T04:50:53.585Z,0.38
2023-03-28T05:06:01.006Z,0.67
2023-03-28T05:20:53.310Z,0.70
2023-03-28T05:35:53.187Z,0.78
2023-03-28T05:50:53.007Z,0.53
2023-03-28T06:05:53.053Z,0.57
2023-03-28T06:20:52.712Z,0.80
2023-03-28T06:35:52.628Z,0.98
2023-03-28T06:50:52.445Z,1.29
2023-03-28T07:05:52.324Z,1.72
2023-03-28T07:21:03.234Z,2.79
2023-03-28T07:35:52.053Z,4.12
2023-03-28T07:50:51.861Z,4.26
2023-03-28T08:05:52.108Z,4.15
2023-03-28T08:20:51.535Z,4.16
2023-03-28T08:35:51.368Z,4.58
2023-03-28T08:50:51.258Z,5.22
2023-03-28T09:05:51.044Z,4.98
2023-03-28T09:20:50.903Z,5.59
2023-03-28T09:35:50.767Z,4.72
2023-03-28T09:50:50.585Z,4.57
2023-03-28T10:05:50.405Z,4.76
2023-03-28T10:20:50.244Z,5.12
2023-03-28T10:35:50.109Z,5.49
2023-03-28T10:50:49.929Z,5.83
2023-03-28T11:05:58.341Z,5.82
2023-03-28T11:21:59.029Z,6.44
2023-03-28T11:36:59.879Z,6.59
2023-03-28T11:51:59.722Z,6.65
2023-03-28T12:07:02.920Z,6.62
2023-03-28T12:21:59.411Z,7.04
2023-03-28T12:36:59.253Z,7.32
2023-03-28T12:51:59.078Z,6.99
2023-03-28T13:06:58.922Z,7.34
2023-03-28T13:21:58.772Z,7.35
2023-03-28T13:36:58.612Z,8.62
2023-03-28T13:51:58.467Z,8.22
2023-03-28T14:06:58.338Z,8.07
2023-03-28T14:21:58.153Z,8.35
2023-03-28T14:36:58.092Z,8.42
2023-03-28T14:51:57.806Z,8.33
2023-03-28T15:06:57.661Z,8.04
2023-03-28T15:21:57.552Z,8.37
2023-03-28T15:36:59.394Z,8.10
2023-03-28T15:51:57.140Z,8.14
2023-03-28T16:06:56.966Z,7.34
2023-03-28T16:21:59.751Z,6.77
2023-03-28T16:36:56.766Z,6.99
2023-03-28T16:51:56.577Z,6.79
2023-03-28T17:06:56.953Z,6.62
2023-03-28T17:21:56.196Z,6.41
2023-03-28T17:36:56.041Z,5.31
2023-03-28T17:51:55.912Z,4.46
2023-03-28T18:06:55.732Z,3.61
2023-03-28T18:21:55.616Z,3.40
2023-03-28T18:36:55.407Z,2.84
2023-03-28T18:51:56.387Z,2.59
2023-03-28T19:06:55.062Z,2.49
2023-03-28T19:21:54.881Z,2.30
2023-03-28T19:36:54.750Z,2.17
2023-03-28T19:51:55.386Z,2.06
2023-03-28T20:06:54.757Z,2.02
2023-03-28T20:21:54.321Z,2.02
2023-03-28T20:36:54.106Z,1.55
2023-03-28T20:51:53.981Z,1.14
2023-03-28T21:06:53.758Z,0.97
2023-03-28T21:21:53.625Z,0.68
2023-03-28T21:36:53.550Z,0.71
2023-03-28T21:51:53.298Z,0.80
2023-03-28T22:06:53.155Z,0.71
2023-03-28T22:21:53.012Z,0.62
2023-03-28T22:36:52.826Z,0.57
2023-03-28T22:51:52.704Z,0.13
2023-03-28T23:06:52.534Z,-0.11
2023-03-28T23:21:52.384Z,-0.34
2023-03-28T23:36:52.301Z,-0.63
2023-03-28T23:51:52.090Z,-0.92
